TimeEDT,TemperatureF,Dew PointF,Humidity,Sea Level PressureIn,VisibilityMPH,Wind Direction,Wind SpeedMPH,Gust SpeedMPH,PrecipitationIn,Events,Conditions,WindDirDegrees,DateUTC
12:52 AM,62.1,60.1,93,29.90,6.0,ENE,13.8,-,N/A,,Clear,60,2013-05-22 04:52:00
1:06 AM,60.8,57.2,88,29.90,6.0,ENE,15.0,-,N/A,,Scattered Clouds,60,2013-05-22 05:06:00
1:16 AM,60.8,57.2,88,29.91,6.0,ENE,15.0,-,N/A,,Mostly Cloudy,60,2013-05-22 05:16:00
1:25 AM,60.8,57.2,88,29.91,2.5,ENE,13.8,-,N/A,,Overcast,70,2013-05-22 05:25:00
1:44 AM,60.8,59.0,94,29.91,4.0,East,13.8,-,N/A,,Overcast,80,2013-05-22 05:44:00
1:52 AM,60.1,57.9,93,29.91,5.0,East,16.1,-,N/A,,Overcast,90,2013-05-22 05:52:00
2:49 AM,59.0,59.0,100,29.91,1.8,East,12.7,-,N/A,,Overcast,90,2013-05-22 06:49:00
2:50 AM,59.0,57.9,96,29.91,1.8,East,12.7,-,N/A,,Overcast,90,2013-05-22 06:50:00
3:18 AM,59.0,57.2,94,29.90,3.0,East,16.1,-,N/A,,Overcast,100,2013-05-22 07:18:00
3:47 AM,57.2,57.2,100,29.92,7.0,East,16.1,-,N/A,,Overcast,80,2013-05-22 07:47:00
3:52 AM,57.9,57.0,97,29.92,7.0,East,17.3,-,N/A,,Overcast,80,2013-05-22 07:52:00
4:43 AM,59.0,57.2,94,29.92,5.0,East,13.8,-,N/A,,Overcast,80,2013-05-22 08:43:00
4:52 AM,59.0,57.0,93,29.93,6.0,ENE,12.7,-,N/A,,Overcast,70,2013-05-22 08:52:00
5:12 AM,57.2,55.4,94,29.95,7.0,NE,13.8,-,N/A,Thunderstorm,Overcast,40,2013-05-22 09:12:00
5:52 AM,57.0,55.0,93,29.94,6.0,East,12.7,-,N/A,Thunderstorm,Overcast,80,2013-05-22 09:52:00
6:04 AM,57.2,55.4,94,29.93,5.0,East,13.8,-,0.01,Rain-Thunderstorm,Light Thunderstorms and Rain,90,2013-05-22 10:04:00
6:21 AM,55.4,55.4,100,29.94,7.0,ESE,9.2,-,0.03,Rain,Light Rain,110,2013-05-22 10:21:00
6:52 AM,55.9,55.0,97,29.95,10.0,East,6.9,-,0.03,,Overcast,90,2013-05-22 10:52:00
7:07 AM,55.4,55.4,100,29.94,10.0,ESE,8.1,-,N/A,,Overcast,120,2013-05-22 11:07:00
7:31 AM,55.4,55.4,100,29.95,10.0,East,5.8,-,N/A,,Overcast,100,2013-05-22 11:31:00
7:52 AM,55.9,55.0,97,29.95,10.0,East,6.9,-,N/A,,Overcast,90,2013-05-22 11:52:00
8:52 AM,57.0,55.9,96,29.95,8.0,East,5.8,-,N/A,,Overcast,80,2013-05-22 12:52:00
9:52 AM,57.0,55.9,96,29.94,5.0,ENE,5.8,-,N/A,,Overcast,60,2013-05-22 13:52:00
10:52 AM,59.0,55.9,90,29.95,10.0,ENE,3.5,-,N/A,,Overcast,60,2013-05-22 14:52:00
11:08 AM,59.0,57.2,94,29.95,9.0,Calm,Calm,-,N/A,,Overcast,0,2013-05-22 15:08:00
11:52 AM,60.1,57.0,90,29.94,8.0,East,4.6,-,N/A,,Overcast,90,2013-05-22 15:52:00
12:40 PM,60.8,57.2,88,29.93,8.0,East,6.9,-,N/A,,Overcast,100,2013-05-22 16:40:00
12:48 PM,60.8,57.2,88,29.93,8.0,East,6.9,-,N/A,,Overcast,100,2013-05-22 16:48:00
12:52 PM,61.0,57.0,87,29.93,8.0,ESE,6.9,-,N/A,,Overcast,110,2013-05-22 16:52:00
1:52 PM,63.0,57.9,84,29.91,7.0,Variable,3.5,-,N/A,,Overcast,0,2013-05-22 17:52:00
2:52 PM,64.0,57.9,80,29.90,8.0,East,6.9,-,N/A,,Overcast,100,2013-05-22 18:52:00
3:49 PM,64.4,60.8,88,29.88,8.0,East,5.8,-,N/A,,Scattered Clouds,90,2013-05-22 19:49:00
3:52 PM,64.9,60.1,84,29.88,7.0,East,4.6,-,N/A,,Partly Cloudy,100,2013-05-22 19:52:00
4:52 PM,63.0,59.0,87,29.88,6.0,ESE,8.1,-,N/A,,Mostly Cloudy,110,2013-05-22 20:52:00
5:52 PM,64.9,60.1,84,29.88,7.0,East,5.8,-,N/A,,Overcast,90,2013-05-22 21:52:00
6:06 PM,62.6,59.0,88,29.87,7.0,East,5.8,-,N/A,,Overcast,90,2013-05-22 22:06:00
6:42 PM,62.6,59.0,88,29.87,7.0,ENE,6.9,-,N/A,,Overcast,70,2013-05-22 22:42:00
6:52 PM,62.1,57.9,86,29.87,7.0,East,5.8,-,N/A,,Overcast,80,2013-05-22 22:52:00
7:07 PM,62.6,57.2,82,29.87,7.0,East,4.6,-,N/A,,Overcast,80,2013-05-22 23:07:00
7:52 PM,63.0,59.0,87,29.88,6.0,ENE,4.6,-,N/A,,Mostly Cloudy,60,2013-05-22 23:52:00
8:03 PM,62.6,60.8,94,29.87,6.0,ENE,4.6,-,N/A,,Scattered Clouds,70,2013-05-23 00:03:00
8:52 PM,63.0,61.0,93,29.88,6.0,ENE,3.5,-,N/A,,Scattered Clouds,60,2013-05-23 00:52:00
9:01 PM,64.4,60.8,88,29.88,6.0,ENE,3.5,-,N/A,,Mostly Cloudy,70,2013-05-23 01:01:00
9:52 PM,63.0,61.0,93,29.89,6.0,Calm,Calm,-,N/A,,Scattered Clouds,0,2013-05-23 01:52:00
10:52 PM,63.0,61.0,93,29.89,5.0,SSE,3.5,-,N/A,,Clear,160,2013-05-23 02:52:00
11:52 PM,64.0,62.1,93,29.89,7.0,SSW,3.5,-,N/A,,Clear,200,2013-05-23 03:52:00